sensor_id;sensor_type;location;lat;lon;timestamp;pressure;altitude;pressure_sealevel;temperature;humidity
75089;BME280;63673;49.928;8.150;2023-06-01T00:00:33;993.82;;;17.37;59.64
75089;BME280;63673;49.928;8.150;2023-06-01T00:01:34;993.79;;;17.33;59.54
75089;BME280;63673;49.928;8.150;2023-06-01T00:02:36;993.78;;;17.32;59.65
75089;BME280;63673;49.928;8.150;2023-06-01T00:03:38;993.78;;;17.31;59.77
75089;BME280;63673;49.928;8.150;2023-06-01T00:04:40;993.78;;;17.29;59.58
75089;BME280;63673;49.928;8.150;2023-06-01T00:05:41;993.8;;;17.28;59.74
75089;BME280;63673;49.928;8.150;2023-06-01T00:06:43;993.77;;;17.26;60.42
75089;BME280;63673;49.928;8.150;2023-06-01T00:07:45;993.79;;;17.25;60.68
75089;BME280;63673;49.928;8.150;2023-06-01T00:08:46;993.74;;;17.22;60.25
75089;BME280;63673;49.928;8.150;2023-06-01T00:09:48;993.74;;;17.21;60.14
75089;BME280;63673;49.928;8.150;2023-06-01T00:10:50;993.75;;;17.19;60.1
75089;BME280;63673;49.928;8.150;2023-06-01T00:11:52;993.75;;;17.18;60.29
75089;BME280;63673;49.928;8.150;2023-06-01T00:12:53;993.75;;;17.16;60.39
75089;BME280;63673;49.928;8.150;2023-06-01T00:13:55;993.76;;;17.15;60.78
75089;BME280;63673;49.928;8.150;2023-06-01T00:14:57;993.71;;;17.13;60.43
75089;BME280;63673;49.928;8.150;2023-06-01T00:15:59;993.7;;;17.11;60.45
75089;BME280;63673;49.928;8.150;2023-06-01T00:17:00;993.72;;;17.1;61.18
75089;BME280;63673;49.928;8.150;2023-06-01T00:18:02;993.69;;;17.08;60.9
75089;BME280;63673;49.928;8.150;2023-06-01T00:19:04;993.68;;;17.06;61.04
75089;BME280;63673;49.928;8.150;2023-06-01T00:20:06;993.71;;;17.05;61.38
75089;BME280;63673;49.928;8.150;2023-06-01T00:21:07;993.72;;;17.03;61.39
75089;BME280;63673;49.928;8.150;2023-06-01T00:22:09;993.7;;;17.02;61.46
75089;BME280;63673;49.928;8.150;2023-06-01T00:23:11;993.64;;;17;61.6
75089;BME280;63673;49.928;8.150;2023-06-01T00:24:12;993.69;;;16.99;61.55
75089;BME280;63673;49.928;8.150;2023-06-01T00:25:14;993.7;;;16.96;61.47
75089;BME280;63673;49.928;8.150;2023-06-01T00:26:16;993.68;;;16.95;62.12
75089;BME280;63673;49.928;8.150;2023-06-01T00:27:18;993.66;;;16.94;61.8
75089;BME280;63673;49.928;8.150;2023-06-01T00:28:19;993.71;;;16.93;61.96
75089;BME280;63673;49.928;8.150;2023-06-01T00:29:21;993.71;;;16.91;62.13
75089;BME280;63673;49.928;8.150;2023-06-01T00:30:23;993.61;;;16.89;62.17
75089;BME280;63673;49.928;8.150;2023-06-01T00:31:25;993.71;;;16.87;62.35
75089;BME280;63673;49.928;8.150;2023-06-01T00:32:26;993.69;;;16.85;62.31
75089;BME280;63673;49.928;8.150;2023-06-01T00:33:28;993.71;;;16.83;62.31
75089;BME280;63673;49.928;8.150;2023-06-01T00:34:30;993.71;;;16.82;62.33
75089;BME280;63673;49.928;8.150;2023-06-01T00:35:31;993.71;;;16.81;62.12
75089;BME280;63673;49.928;8.150;2023-06-01T00:36:33;993.7;;;16.79;62.23
75089;BME280;63673;49.928;8.150;2023-06-01T00:37:35;993.71;;;16.77;62.31
75089;BME280;63673;49.928;8.150;2023-06-01T00:38:37;993.66;;;16.77;62.76
75089;BME280;63673;49.928;8.150;2023-06-01T00:39:38;993.71;;;16.76;62.8
75089;BME280;63673;49.928;8.150;2023-06-01T00:40:40;993.63;;;16.75;62.69
75089;BME280;63673;49.928;8.150;2023-06-01T00:41:42;993.74;;;16.74;62.53
75089;BME280;63673;49.928;8.150;2023-06-01T00:42:44;993.7;;;16.72;63.22
75089;BME280;63673;49.928;8.150;2023-06-01T00:43:45;993.67;;;16.7;63.28
75089;BME280;63673;49.928;8.150;2023-06-01T00:44:47;993.7;;;16.69;63.2
75089;BME280;63673;49.928;8.150;2023-06-01T00:45:49;993.68;;;16.67;63.47
75089;BME280;63673;49.928;8.150;2023-06-01T00:46:51;993.67;;;16.64;62.97
75089;BME280;63673;49.928;8.150;2023-06-01T00:47:52;993.64;;;16.62;63.89
75089;BME280;63673;49.928;8.150;2023-06-01T00:48:54;993.64;;;16.61;63.84
75089;BME280;63673;49.928;8.150;2023-06-01T00:49:56;993.65;;;16.59;63.9
75089;BME280;63673;49.928;8.150;2023-06-01T00:50:58;993.67;;;16.57;63.62
75089;BME280;63673;49.928;8.150;2023-06-01T00:51:59;993.63;;;16.54;63.97
75089;BME280;63673;49.928;8.150;2023-06-01T00:53:02;993.67;;;16.52;64.28
75089;BME280;63673;49.928;8.150;2023-06-01T00:54:03;993.62;;;16.49;64.34
75089;BME280;63673;49.928;8.150;2023-06-01T00:55:05;993.63;;;16.47;64.39
75089;BME280;63673;49.928;8.150;2023-06-01T00:56:06;993.62;;;16.45;64.55
75089;BME280;63673;49.928;8.150;2023-06-01T00:57:08;993.62;;;16.42;64.93
75089;BME280;63673;49.928;8.150;2023-06-01T00:58:11;993.65;;;16.4;64.37
75089;BME280;63673;49.928;8.150;2023-06-01T00:59:11;993.66;;;16.37;64.84
75089;BME280;63673;49.928;8.150;2023-06-01T01:00:13;993.69;;;16.33;65.28
75089;BME280;63673;49.928;8.150;2023-06-01T01:01:15;993.62;;;16.31;65.32
75089;BME280;63673;49.928;8.150;2023-06-01T01:02:17;993.67;;;16.27;65.47
75089;BME280;63673;49.928;8.150;2023-06-01T01:03:19;993.64;;;16.25;66.04
75089;BME280;63673;49.928;8.150;2023-06-01T01:04:20;993.65;;;16.22;66.19
75089;BME280;63673;49.928;8.150;2023-06-01T01:05:22;993.63;;;16.19;66.47
75089;BME280;63673;49.928;8.150;2023-06-01T01:06:27;993.65;;;16.16;65.71
75089;BME280;63673;49.928;8.150;2023-06-01T01:07:28;993.63;;;16.14;66.27
75089;BME280;63673;49.928;8.150;2023-06-01T01:08:27;993.66;;;16.12;66.4
75089;BME280;63673;49.928;8.150;2023-06-01T01:09:31;993.63;;;16.11;66.62
75089;BME280;63673;49.928;8.150;2023-06-01T01:10:31;993.69;;;16.09;66.39
75089;BME280;63673;49.928;8.150;2023-06-01T01:11:32;993.62;;;16.07;66.65
75089;BME280;63673;49.928;8.150;2023-06-01T01:12:35;993.62;;;16.03;66.97
75089;BME280;63673;49.928;8.150;2023-06-01T01:13:37;993.66;;;16.01;67.02
75089;BME280;63673;49.928;8.150;2023-06-01T01:14:39;993.64;;;15.98;67
75089;BME280;63673;49.928;8.150;2023-06-01T01:15:41;993.65;;;15.94;67.12
75089;BME280;63673;49.928;8.150;2023-06-01T01:16:42;993.62;;;15.91;67.03
75089;BME280;63673;49.928;8.150;2023-06-01T01:17:44;993.63;;;15.87;67.38
75089;BME280;63673;49.928;8.150;2023-06-01T01:18:46;993.7;;;15.83;67.31
75089;BME280;63673;49.928;8.150;2023-06-01T01:19:50;993.68;;;15.8;68.15
75089;BME280;63673;49.928;8.150;2023-06-01T01:20:48;993.68;;;15.76;68.22
75089;BME280;63673;49.928;8.150;2023-06-01T01:22:58;993.65;;;15.68;68.79
75089;BME280;63673;49.928;8.150;2023-06-01T01:23:58;993.63;;;15.63;68.85
75089;BME280;63673;49.928;8.150;2023-06-01T01:25:00;993.69;;;15.57;69.81
75089;BME280;63673;49.928;8.150;2023-06-01T01:26:08;993.68;;;15.53;69.02
75089;BME280;63673;49.928;8.150;2023-06-01T01:27:04;993.66;;;15.49;69.08
75089;BME280;63673;49.928;8.150;2023-06-01T01:28:06;993.65;;;15.44;69.13
75089;BME280;63673;49.928;8.150;2023-06-01T01:29:03;993.68;;;15.4;69.84
75089;BME280;63673;49.928;8.150;2023-06-01T01:30:04;993.64;;;15.35;70
75089;BME280;63673;49.928;8.150;2023-06-01T01:31:05;993.67;;;15.31;71.07
75089;BME280;63673;49.928;8.150;2023-06-01T01:32:07;993.7;;;15.26;70.81
75089;BME280;63673;49.928;8.150;2023-06-01T01:33:09;993.71;;;15.21;71.11
75089;BME280;63673;49.928;8.150;2023-06-01T01:34:10;993.71;;;15.17;71.65
75089;BME280;63673;49.928;8.150;2023-06-01T01:35:12;993.7;;;15.13;71.3
75089;BME280;63673;49.928;8.150;2023-06-01T01:36:14;993.71;;;15.08;72.63
75089;BME280;63673;49.928;8.150;2023-06-01T01:37:15;993.66;;;15.03;72.29
75089;BME280;63673;49.928;8.150;2023-06-01T01:38:17;993.6;;;14.98;72.91
75089;BME280;63673;49.928;8.150;2023-06-01T01:39:19;993.64;;;14.93;73.25
75089;BME280;63673;49.928;8.150;2023-06-01T01:40:21;993.63;;;14.89;73.46
75089;BME280;63673;49.928;8.150;2023-06-01T01:41:22;993.62;;;14.84;73.92
75089;BME280;63673;49.928;8.150;2023-06-01T01:42:24;993.62;;;14.79;73.6
75089;BME280;63673;49.928;8.150;2023-06-01T01:43:26;993.6;;;14.75;74
75089;BME280;63673;49.928;8.150;2023-06-01T01:44:28;993.55;;;14.7;75.24
75089;BME280;63673;49.928;8.150;2023-06-01T01:45:29;993.56;;;14.66;75.69
75089;BME280;63673;49.928;8.150;2023-06-01T01:46:32;993.54;;;14.61;75.11
75089;BME280;63673;49.928;8.150;2023-06-01T01:47:35;993.54;;;14.57;75.65
75089;BME280;63673;49.928;8.150;2023-06-01T01:48:35;993.52;;;14.53;76.8
75089;BME280;63673;49.928;8.150;2023-06-01T01:49:37;993.57;;;14.48;75.66
75089;BME280;63673;49.928;8.150;2023-06-01T01:50:38;993.58;;;14.44;76.97
75089;BME280;63673;49.928;8.150;2023-06-01T01:51:43;993.54;;;14.41;77.69
75089;BME280;63673;49.928;8.150;2023-06-01T01:52:42;993.59;;;14.35;77.5
75089;BME280;63673;49.928;8.150;2023-06-01T01:53:43;993.49;;;14.32;77.16
75089;BME280;63673;49.928;8.150;2023-06-01T01:54:45;993.57;;;14.29;77.94
75089;BME280;63673;49.928;8.150;2023-06-01T01:55:47;993.54;;;14.25;77.52
75089;BME280;63673;49.928;8.150;2023-06-01T01:56:49;993.6;;;14.22;78.02
75089;BME280;63673;49.928;8.150;2023-06-01T01:57:50;993.58;;;14.19;78.8
75089;BME280;63673;49.928;8.150;2023-06-01T01:58:52;993.55;;;14.17;78.89
75089;BME280;63673;49.928;8.150;2023-06-01T01:59:54;993.56;;;14.14;79.51
75089;BME280;63673;49.928;8.150;2023-06-01T02:00:55;993.54;;;14.1;79.65
75089;BME280;63673;49.928;8.150;2023-06-01T02:01:57;993.53;;;14.08;79.87
75089;BME280;63673;49.928;8.150;2023-06-01T02:02:59;993.54;;;14.05;80.01
75089;BME280;63673;49.928;8.150;2023-06-01T02:04:01;993.55;;;14.03;80.61
75089;BME280;63673;49.928;8.150;2023-06-01T02:05:02;993.45;;;14;80.47
75089;BME280;63673;49.928;8.150;2023-06-01T02:06:04;993.49;;;13.99;80.56
75089;BME280;63673;49.928;8.150;2023-06-01T02:07:06;993.51;;;13.98;80.42
75089;BME280;63673;49.928;8.150;2023-06-01T02:08:08;993.49;;;13.97;80.61
75089;BME280;63673;49.928;8.150;2023-06-01T02:09:09;993.47;;;13.97;81.59
75089;BME280;63673;49.928;8.150;2023-06-01T02:10:11;993.46;;;13.97;81.4
75089;BME280;63673;49.928;8.150;2023-06-01T02:11:13;993.47;;;13.96;81.24
75089;BME280;63673;49.928;8.150;2023-06-01T02:12:14;993.46;;;13.96;81.74
75089;BME280;63673;49.928;8.150;2023-06-01T02:13:16;993.47;;;13.96;81.34
75089;BME280;63673;49.928;8.150;2023-06-01T02:14:18;993.48;;;13.96;81.88
75089;BME280;63673;49.928;8.150;2023-06-01T02:15:20;993.46;;;13.97;81.99
75089;BME280;63673;49.928;8.150;2023-06-01T02:16:21;993.4;;;13.96;81.96
75089;BME280;63673;49.928;8.150;2023-06-01T02:17:23;993.44;;;13.96;81.17
75089;BME280;63673;49.928;8.150;2023-06-01T02:18:25;993.46;;;13.97;82.27
75089;BME280;63673;49.928;8.150;2023-06-01T02:19:27;993.44;;;13.96;82.11
75089;BME280;63673;49.928;8.150;2023-06-01T02:20:28;993.43;;;13.97;82.07
75089;BME280;63673;49.928;8.150;2023-06-01T02:21:30;993.41;;;13.98;81.91
75089;BME280;63673;49.928;8.150;2023-06-01T02:22:32;993.4;;;13.99;82.12
75089;BME280;63673;49.928;8.150;2023-06-01T02:23:34;993.43;;;14;82.66
75089;BME280;63673;49.928;8.150;2023-06-01T02:24:35;993.43;;;14.02;82.52
75089;BME280;63673;49.928;8.150;2023-06-01T02:25:37;993.46;;;14.04;82.22
75089;BME280;63673;49.928;8.150;2023-06-01T02:26:39;993.42;;;14.05;83.79
75089;BME280;63673;49.928;8.150;2023-06-01T02:27:40;993.45;;;14.06;82.49
75089;BME280;63673;49.928;8.150;2023-06-01T02:28:42;993.48;;;14.07;82.7
75089;BME280;63673;49.928;8.150;2023-06-01T02:29:44;993.52;;;14.08;82.59
75089;BME280;63673;49.928;8.150;2023-06-01T02:30:46;993.45;;;14.08;82.84
75089;BME280;63673;49.928;8.150;2023-06-01T02:31:47;993.43;;;14.09;83.51
75089;BME280;63673;49.928;8.150;2023-06-01T02:32:49;993.47;;;14.11;82.51
75089;BME280;63673;49.928;8.150;2023-06-01T02:33:51;993.46;;;14.12;82.33
75089;BME280;63673;49.928;8.150;2023-06-01T02:34:53;993.47;;;14.12;82.15
75089;BME280;63673;49.928;8.150;2023-06-01T02:35:54;993.45;;;14.12;82.81
75089;BME280;63673;49.928;8.150;2023-06-01T02:36:56;993.46;;;14.12;83.47
75089;BME280;63673;49.928;8.150;2023-06-01T02:37:58;993.45;;;14.11;83.03
75089;BME280;63673;49.928;8.150;2023-06-01T02:39:00;993.41;;;14.1;83.25
75089;BME280;63673;49.928;8.150;2023-06-01T02:40:01;993.41;;;14.08;83.41
75089;BME280;63673;49.928;8.150;2023-06-01T02:41:03;993.4;;;14.08;84.16
75089;BME280;63673;49.928;8.150;2023-06-01T02:42:05;993.41;;;14.06;83.14
75089;BME280;63673;49.928;8.150;2023-06-01T02:43:06;993.38;;;14.04;84.1
75089;BME280;63673;49.928;8.150;2023-06-01T02:44:08;993.33;;;14.02;84.2
75089;BME280;63673;49.928;8.150;2023-06-01T02:45:10;993.37;;;14;84.35
75089;BME280;63673;49.928;8.150;2023-06-01T02:46:12;993.36;;;13.99;84.51
75089;BME280;63673;49.928;8.150;2023-06-01T02:47:13;993.33;;;13.98;84.33
75089;BME280;63673;49.928;8.150;2023-06-01T02:48:15;993.33;;;13.97;84.15
75089;BME280;63673;49.928;8.150;2023-06-01T02:49:17;993.32;;;13.96;84.71
75089;BME280;63673;49.928;8.150;2023-06-01T02:50:19;993.35;;;13.95;84.71
75089;BME280;63673;49.928;8.150;2023-06-01T02:51:20;993.36;;;13.95;84.93
75089;BME280;63673;49.928;8.150;2023-06-01T02:52:22;993.33;;;13.93;85.38
75089;BME280;63673;49.928;8.150;2023-06-01T02:53:24;993.35;;;13.93;85.9
75089;BME280;63673;49.928;8.150;2023-06-01T02:54:25;993.36;;;13.93;84.87
75089;BME280;63673;49.928;8.150;2023-06-01T02:55:27;993.36;;;13.91;85.01
75089;BME280;63673;49.928;8.150;2023-06-01T02:56:29;993.34;;;13.91;85
75089;BME280;63673;49.928;8.150;2023-06-01T02:57:31;993.34;;;13.89;85.34
75089;BME280;63673;49.928;8.150;2023-06-01T02:58:32;993.33;;;13.88;85.26
75089;BME280;63673;49.928;8.150;2023-06-01T02:59:34;993.31;;;13.87;85.23
75089;BME280;63673;49.928;8.150;2023-06-01T03:00:36;993.33;;;13.85;85.32
75089;BME280;63673;49.928;8.150;2023-06-01T03:01:38;993.3;;;13.84;86.04
75089;BME280;63673;49.928;8.150;2023-06-01T03:02:39;993.42;;;13.83;86.55
75089;BME280;63673;49.928;8.150;2023-06-01T03:03:41;993.33;;;13.83;87.01
75089;BME280;63673;49.928;8.150;2023-06-01T03:04:43;993.33;;;13.82;87.09
75089;BME280;63673;49.928;8.150;2023-06-01T03:05:45;993.3;;;13.82;86.85
75089;BME280;63673;49.928;8.150;2023-06-01T03:06:46;993.31;;;13.81;87.01
75089;BME280;63673;49.928;8.150;2023-06-01T03:07:49;993.35;;;13.81;87.04
75089;BME280;63673;49.928;8.150;2023-06-01T03:08:50;993.33;;;13.8;87.57
75089;BME280;63673;49.928;8.150;2023-06-01T03:09:52;993.39;;;13.8;87.05
75089;BME280;63673;49.928;8.150;2023-06-01T03:10:53;993.38;;;13.8;88.13
75089;BME280;63673;49.928;8.150;2023-06-01T03:11:55;993.32;;;13.8;88.59
75089;BME280;63673;49.928;8.150;2023-06-01T03:12:57;993.35;;;13.79;88.38
75089;BME280;63673;49.928;8.150;2023-06-01T03:13:58;993.36;;;13.79;88.44
75089;BME280;63673;49.928;8.150;2023-06-01T03:15:00;993.36;;;13.78;88.49
75089;BME280;63673;49.928;8.150;2023-06-01T03:16:02;993.36;;;13.77;88.09
75089;BME280;63673;49.928;8.150;2023-06-01T03:17:04;993.41;;;13.78;88.78
75089;BME280;63673;49.928;8.150;2023-06-01T03:18:05;993.37;;;13.77;88.6
75089;BME280;63673;49.928;8.150;2023-06-01T03:19:07;993.35;;;13.76;88.92
75089;BME280;63673;49.928;8.150;2023-06-01T03:20:09;993.4;;;13.75;90.77
75089;BME280;63673;49.928;8.150;2023-06-01T03:21:11;993.38;;;13.74;88.93
75089;BME280;63673;49.928;8.150;2023-06-01T03:22:12;993.41;;;13.72;88.9
75089;BME280;63673;49.928;8.150;2023-06-01T03:23:14;993.38;;;13.71;89
75089;BME280;63673;49.928;8.150;2023-06-01T03:24:16;993.35;;;13.7;89.29
75089;BME280;63673;49.928;8.150;2023-06-01T03:25:17;993.37;;;13.69;89.44
75089;BME280;63673;49.928;8.150;2023-06-01T03:26:19;993.36;;;13.68;89.59
75089;BME280;63673;49.928;8.150;2023-06-01T03:27:21;993.34;;;13.67;89.74
75089;BME280;63673;49.928;8.150;2023-06-01T03:28:23;993.32;;;13.66;89.79
75089;BME280;63673;49.928;8.150;2023-06-01T03:29:25;993.38;;;13.66;90.6
75089;BME280;63673;49.928;8.150;2023-06-01T03:30:26;993.36;;;13.64;90.05
75089;BME280;63673;49.928;8.150;2023-06-01T03:31:28;993.37;;;13.63;90.05
75089;BME280;63673;49.928;8.150;2023-06-01T03:32:30;993.37;;;13.61;90.31
75089;BME280;63673;49.928;8.150;2023-06-01T03:33:31;993.37;;;13.59;89.92
75089;BME280;63673;49.928;8.150;2023-06-01T03:34:33;993.38;;;13.57;90.5
75089;BME280;63673;49.928;8.150;2023-06-01T03:35:35;993.35;;;13.55;90.33
75089;BME280;63673;49.928;8.150;2023-06-01T03:36:37;993.37;;;13.52;90.66
75089;BME280;63673;49.928;8.150;2023-06-01T03:37:39;993.34;;;13.5;90.76
75089;BME280;63673;49.928;8.150;2023-06-01T03:38:40;993.41;;;13.47;91.09
75089;BME280;63673;49.928;8.150;2023-06-01T03:39:42;993.41;;;13.45;90.88
75089;BME280;63673;49.928;8.150;2023-06-01T03:40:43;993.36;;;13.41;90.82
75089;BME280;63673;49.928;8.150;2023-06-01T03:41:45;993.35;;;13.37;90.89
75089;BME280;63673;49.928;8.150;2023-06-01T03:42:47;993.33;;;13.35;91.04
75089;BME280;63673;49.928;8.150;2023-06-01T03:43:49;993.32;;;13.32;91.52
75089;BME280;63673;49.928;8.150;2023-06-01T03:44:50;993.29;;;13.29;91.98
75089;BME280;63673;49.928;8.150;2023-06-01T03:45:52;993.35;;;13.27;92.27
75089;BME280;63673;49.928;8.150;2023-06-01T03:46:54;993.4;;;13.23;92.05
75089;BME280;63673;49.928;8.150;2023-06-01T03:47:56;993.4;;;13.2;92.54
75089;BME280;63673;49.928;8.150;2023-06-01T03:48:57;993.4;;;13.18;92.37
75089;BME280;63673;49.928;8.150;2023-06-01T03:49:59;993.43;;;13.15;92.49
75089;BME280;63673;49.928;8.150;2023-06-01T03:51:01;993.43;;;13.13;92.71
75089;BME280;63673;49.928;8.150;2023-06-01T03:52:03;993.47;;;13.11;92.8
75089;BME280;63673;49.928;8.150;2023-06-01T03:53:04;993.39;;;13.08;93.06
75089;BME280;63673;49.928;8.150;2023-06-01T03:54:06;993.43;;;13.05;93.44
75089;BME280;63673;49.928;8.150;2023-06-01T03:55:08;993.45;;;13.04;93.46
75089;BME280;63673;49.928;8.150;2023-06-01T03:56:09;993.45;;;13.02;93.67
75089;BME280;63673;49.928;8.150;2023-06-01T03:57:11;993.45;;;13;94.15
75089;BME280;63673;49.928;8.150;2023-06-01T03:58:13;993.47;;;12.98;94.13
75089;BME280;63673;49.928;8.150;2023-06-01T03:59:15;993.47;;;12.97;94.64
75089;BME280;63673;49.928;8.150;2023-06-01T04:00:16;993.49;;;12.96;94.66
75089;BME280;63673;49.928;8.150;2023-06-01T04:01:18;993.48;;;12.96;95.05
75089;BME280;63673;49.928;8.150;2023-06-01T04:02:20;993.52;;;12.95;95.77
75089;BME280;63673;49.928;8.150;2023-06-01T04:03:22;993.53;;;12.96;95.78
75089;BME280;63673;49.928;8.150;2023-06-01T04:04:24;993.52;;;12.96;96.16
75089;BME280;63673;49.928;8.150;2023-06-01T04:05:25;993.51;;;12.97;96.89
75089;BME280;63673;49.928;8.150;2023-06-01T04:06:27;993.56;;;12.97;96.74
75089;BME280;63673;49.928;8.150;2023-06-01T04:07:29;993.55;;;12.98;96.81
75089;BME280;63673;49.928;8.150;2023-06-01T04:08:30;993.57;;;12.99;97.24
75089;BME280;63673;49.928;8.150;2023-06-01T04:09:32;993.52;;;12.99;97.4
75089;BME280;63673;49.928;8.150;2023-06-01T04:10:34;993.54;;;12.99;97.41
75089;BME280;63673;49.928;8.150;2023-06-01T04:11:36;993.56;;;13;97.72
75089;BME280;63673;49.928;8.150;2023-06-01T04:12:37;993.57;;;13;98.05
75089;BME280;63673;49.928;8.150;2023-06-01T04:13:39;993.57;;;13.01;98.4
75089;BME280;63673;49.928;8.150;2023-06-01T04:14:41;993.55;;;13.02;98.81
75089;BME280;63673;49.928;8.150;2023-06-01T04:15:42;993.57;;;13.01;99.14
75089;BME280;63673;49.928;8.150;2023-06-01T04:16:44;993.58;;;13.01;99.54
75089;BME280;63673;49.928;8.150;2023-06-01T04:17:46;993.6;;;13.01;99.58
75089;BME280;63673;49.928;8.150;2023-06-01T04:18:48;993.56;;;13.01;99.36
75089;BME280;63673;49.928;8.150;2023-06-01T04:19:49;993.5;;;13.02;99.69
75089;BME280;63673;49.928;8.150;2023-06-01T04:20:51;993.57;;;13.01;99.9
75089;BME280;63673;49.928;8.150;2023-06-01T04:21:53;993.5;;;13.02;100
75089;BME280;63673;49.928;8.150;2023-06-01T04:22:55;993.54;;;13.02;100
75089;BME280;63673;49.928;8.150;2023-06-01T04:23:56;993.62;;;13.02;100
75089;BME280;63673;49.928;8.150;2023-06-01T04:24:58;993.62;;;13.01;100
75089;BME280;63673;49.928;8.150;2023-06-01T04:26:00;993.62;;;13.01;100
75089;BME280;63673;49.928;8.150;2023-06-01T04:27:02;993.65;;;13;100
75089;BME280;63673;49.928;8.150;2023-06-01T04:28:03;993.62;;;12.99;100
75089;BME280;63673;49.928;8.150;2023-06-01T04:29:05;993.7;;;12.98;100
75089;BME280;63673;49.928;8.150;2023-06-01T04:30:07;993.7;;;12.97;100
75089;BME280;63673;49.928;8.150;2023-06-01T04:31:08;993.68;;;12.96;100
75089;BME280;63673;49.928;8.150;2023-06-01T04:32:10;993.68;;;12.93;100
75089;BME280;63673;49.928;8.150;2023-06-01T04:33:12;993.73;;;12.92;100
75089;BME280;63673;49.928;8.150;2023-06-01T04:34:14;993.7;;;12.9;100
75089;BME280;63673;49.928;8.150;2023-06-01T04:35:15;993.74;;;12.9;100
75089;BME280;63673;49.928;8.150;2023-06-01T04:36:17;993.68;;;12.88;100
75089;BME280;63673;49.928;8.150;2023-06-01T04:37:19;993.75;;;12.87;100
75089;BME280;63673;49.928;8.150;2023-06-01T04:38:21;993.75;;;12.86;100
75089;BME280;63673;49.928;8.150;2023-06-01T04:39:22;993.71;;;12.84;100
75089;BME280;63673;49.928;8.150;2023-06-01T04:40:24;993.67;;;12.84;100
75089;BME280;63673;49.928;8.150;2023-06-01T04:41:26;993.65;;;12.83;100
75089;BME280;63673;49.928;8.150;2023-06-01T04:42:28;993.73;;;12.82;100
75089;BME280;63673;49.928;8.150;2023-06-01T04:43:29;993.73;;;12.82;100
75089;BME280;63673;49.928;8.150;2023-06-01T04:44:31;993.74;;;12.82;100
75089;BME280;63673;49.928;8.150;2023-06-01T04:45:33;993.74;;;12.82;100
75089;BME280;63673;49.928;8.150;2023-06-01T04:46:34;993.76;;;12.81;100
75089;BME280;63673;49.928;8.150;2023-06-01T04:47:36;993.75;;;12.81;100
75089;BME280;63673;49.928;8.150;2023-06-01T04:48:38;993.74;;;12.82;100
75089;BME280;63673;49.928;8.150;2023-06-01T04:49:40;993.81;;;12.81;100
75089;BME280;63673;49.928;8.150;2023-06-01T04:50:41;993.81;;;12.82;100
75089;BME280;63673;49.928;8.150;2023-06-01T04:51:43;993.79;;;12.82;100
75089;BME280;63673;49.928;8.150;2023-06-01T04:52:45;993.8;;;12.81;100
75089;BME280;63673;49.928;8.150;2023-06-01T04:53:47;993.8;;;12.81;100
75089;BME280;63673;49.928;8.150;2023-06-01T04:54:48;993.71;;;12.81;100
75089;BME280;63673;49.928;8.150;2023-06-01T04:55:50;993.82;;;12.81;100
75089;BME280;63673;49.928;8.150;2023-06-01T04:56:52;993.8;;;12.81;100
75089;BME280;63673;49.928;8.150;2023-06-01T04:57:53;993.75;;;12.81;100
75089;BME280;63673;49.928;8.150;2023-06-01T04:58:56;993.77;;;12.81;100
75089;BME280;63673;49.928;8.150;2023-06-01T04:59:57;993.77;;;12.81;100
75089;BME280;63673;49.928;8.150;2023-06-01T05:00:59;993.76;;;12.83;100
75089;BME280;63673;49.928;8.150;2023-06-01T05:02:00;993.72;;;12.83;100
75089;BME280;63673;49.928;8.150;2023-06-01T05:03:02;993.73;;;12.85;100
75089;BME280;63673;49.928;8.150;2023-06-01T05:04:04;993.7;;;12.86;100
75089;BME280;63673;49.928;8.150;2023-06-01T05:05:06;993.7;;;12.88;100
75089;BME280;63673;49.928;8.150;2023-06-01T05:06:08;993.72;;;12.91;100
75089;BME280;63673;49.928;8.150;2023-06-01T05:07:09;993.71;;;12.93;100
75089;BME280;63673;49.928;8.150;2023-06-01T05:08:11;993.69;;;12.96;100
75089;BME280;63673;49.928;8.150;2023-06-01T05:09:13;993.7;;;12.98;100
75089;BME280;63673;49.928;8.150;2023-06-01T05:10:15;993.71;;;13.01;100
75089;BME280;63673;49.928;8.150;2023-06-01T05:11:16;993.74;;;13.04;100
75089;BME280;63673;49.928;8.150;2023-06-01T05:12:18;993.73;;;13.07;100
75089;BME280;63673;49.928;8.150;2023-06-01T05:13:19;993.77;;;13.11;100
75089;BME280;63673;49.928;8.150;2023-06-01T05:14:21;993.75;;;13.15;100
75089;BME280;63673;49.928;8.150;2023-06-01T05:15:23;993.74;;;13.19;100
75089;BME280;63673;49.928;8.150;2023-06-01T05:16:25;993.73;;;13.22;100
75089;BME280;63673;49.928;8.150;2023-06-01T05:17:27;993.77;;;13.27;100
75089;BME280;63673;49.928;8.150;2023-06-01T05:18:28;993.77;;;13.31;100
75089;BME280;63673;49.928;8.150;2023-06-01T05:19:30;993.77;;;13.35;100
75089;BME280;63673;49.928;8.150;2023-06-01T05:20:32;993.71;;;13.4;100
75089;BME280;63673;49.928;8.150;2023-06-01T05:21:33;993.68;;;13.45;100
75089;BME280;63673;49.928;8.150;2023-06-01T05:22:35;993.72;;;13.49;100
75089;BME280;63673;49.928;8.150;2023-06-01T05:23:37;993.67;;;13.54;100
75089;BME280;63673;49.928;8.150;2023-06-01T05:24:39;993.66;;;13.58;100
75089;BME280;63673;49.928;8.150;2023-06-01T05:25:40;993.65;;;13.62;100
75089;BME280;63673;49.928;8.150;2023-06-01T05:26:42;993.66;;;13.67;100
75089;BME280;63673;49.928;8.150;2023-06-01T05:27:44;993.64;;;13.73;100
75089;BME280;63673;49.928;8.150;2023-06-01T05:28:45;993.68;;;13.79;100
75089;BME280;63673;49.928;8.150;2023-06-01T05:29:47;993.68;;;13.85;100
75089;BME280;63673;49.928;8.150;2023-06-01T05:30:49;993.69;;;13.92;100
75089;BME280;63673;49.928;8.150;2023-06-01T05:31:51;993.69;;;14;100
75089;BME280;63673;49.928;8.150;2023-06-01T05:32:52;993.71;;;14.1;100
75089;BME280;63673;49.928;8.150;2023-06-01T05:33:54;993.7;;;14.19;100
75089;BME280;63673;49.928;8.150;2023-06-01T05:34:56;993.73;;;14.29;100
75089;BME280;63673;49.928;8.150;2023-06-01T05:35:58;993.66;;;14.41;100
75089;BME280;63673;49.928;8.150;2023-06-01T05:37:00;993.61;;;14.5;100
75089;BME280;63673;49.928;8.150;2023-06-01T05:38:01;993.63;;;14.61;100
75089;BME280;63673;49.928;8.150;2023-06-01T05:39:03;993.64;;;14.72;100
75089;BME280;63673;49.928;8.150;2023-06-01T05:40:05;993.61;;;14.82;100
75089;BME280;63673;49.928;8.150;2023-06-01T05:41:06;993.67;;;14.93;100